sensor_id;sensor_type;location;lat;lon;timestamp;temperature;humidity
439;DHT22;206;48.782;9.252;2023-03-04T00:01:47;4.00;44.60
439;DHT22;206;48.782;9.252;2023-03-04T00:04:13;3.90;44.50
439;DHT22;206;48.782;9.252;2023-03-04T00:06:38;3.90;44.50
439;DHT22;206;48.782;9.252;2023-03-04T00:09:04;3.90;44.50
439;DHT22;206;48.782;9.252;2023-03-04T00:11:30;3.80;45.10
439;DHT22;206;48.782;9.252;2023-03-04T00:13:56;3.80;45.40
439;DHT22;206;48.782;9.252;2023-03-04T00:16:23;3.80;45.90
439;DHT22;206;48.782;9.252;2023-03-04T00:18:52;3.70;46.10
439;DHT22;206;48.782;9.252;2023-03-04T00:21:17;3.70;47.20
439;DHT22;206;48.782;9.252;2023-03-04T00:23:43;3.70;46.80
439;DHT22;206;48.782;9.252;2023-03-04T00:26:09;3.60;46.90
439;DHT22;206;48.782;9.252;2023-03-04T00:28:34;3.60;47.20
439;DHT22;206;48.782;9.252;2023-03-04T00:31:00;3.60;47.40
439;DHT22;206;48.782;9.252;2023-03-04T00:33:25;3.60;47.70
439;DHT22;206;48.782;9.252;2023-03-04T00:35:51;3.50;47.70
439;DHT22;206;48.782;9.252;2023-03-04T00:38:17;3.50;47.10
439;DHT22;206;48.782;9.252;2023-03-04T00:40:42;3.50;46.90
439;DHT22;206;48.782;9.252;2023-03-04T00:43:08;3.50;46.80
439;DHT22;206;48.782;9.252;2023-03-04T00:45:33;3.40;47.40
439;DHT22;206;48.782;9.252;2023-03-04T00:47:59;3.40;48.40
439;DHT22;206;48.782;9.252;2023-03-04T00:50:24;3.40;48.50
439;DHT22;206;48.782;9.252;2023-03-04T00:52:50;3.30;48.20
439;DHT22;206;48.782;9.252;2023-03-04T00:55:16;3.30;48.30
439;DHT22;206;48.782;9.252;2023-03-04T00:57:41;3.30;48.40
439;DHT22;206;48.782;9.252;2023-03-04T01:00:08;3.30;48.10
439;DHT22;206;48.782;9.252;2023-03-04T01:02:33;3.30;48.30
439;DHT22;206;48.782;9.252;2023-03-04T01:04:59;3.30;48.30
439;DHT22;206;48.782;9.252;2023-03-04T01:07:24;3.30;48.50
439;DHT22;206;48.782;9.252;2023-03-04T01:09:50;3.30;48.00
439;DHT22;206;48.782;9.252;2023-03-04T01:12:16;3.30;47.60
439;DHT22;206;48.782;9.252;2023-03-04T01:14:41;3.20;47.50
439;DHT22;206;48.782;9.252;2023-03-04T01:17:07;3.20;47.20
439;DHT22;206;48.782;9.252;2023-03-04T01:19:32;3.20;47.50
439;DHT22;206;48.782;9.252;2023-03-04T01:21:58;3.20;47.20
439;DHT22;206;48.782;9.252;2023-03-04T01:24:24;3.20;47.40
439;DHT22;206;48.782;9.252;2023-03-04T01:26:49;3.10;47.40
439;DHT22;206;48.782;9.252;2023-03-04T01:29:15;3.10;47.70
439;DHT22;206;48.782;9.252;2023-03-04T01:31:40;3.10;48.40
439;DHT22;206;48.782;9.252;2023-03-04T01:34:06;3.10;48.60
439;DHT22;206;48.782;9.252;2023-03-04T01:36:34;3.00;48.70
439;DHT22;206;48.782;9.252;2023-03-04T01:38:59;3.00;48.90
439;DHT22;206;48.782;9.252;2023-03-04T01:41:26;3.00;48.60
439;DHT22;206;48.782;9.252;2023-03-04T01:43:54;3.00;48.60
439;DHT22;206;48.782;9.252;2023-03-04T01:46:20;2.90;48.20
439;DHT22;206;48.782;9.252;2023-03-04T01:48:46;2.90;48.50
439;DHT22;206;48.782;9.252;2023-03-04T01:51:15;2.90;49.10
439;DHT22;206;48.782;9.252;2023-03-04T01:53:42;2.90;48.50
439;DHT22;206;48.782;9.252;2023-03-04T01:56:14;2.90;48.50
439;DHT22;206;48.782;9.252;2023-03-04T01:58:41;2.90;48.50
439;DHT22;206;48.782;9.252;2023-03-04T02:01:09;2.90;48.50
439;DHT22;206;48.782;9.252;2023-03-04T02:03:35;2.90;48.50
439;DHT22;206;48.782;9.252;2023-03-04T02:06:01;2.90;48.50
439;DHT22;206;48.782;9.252;2023-03-04T02:08:27;2.90;48.50
439;DHT22;206;48.782;9.252;2023-03-04T02:10:53;2.90;48.50
439;DHT22;206;48.782;9.252;2023-03-04T02:13:19;2.80;48.40
439;DHT22;206;48.782;9.252;2023-03-04T02:15:45;2.80;48.40
439;DHT22;206;48.782;9.252;2023-03-04T02:18:17;2.80;48.40
439;DHT22;206;48.782;9.252;2023-03-04T02:21:07;2.70;48.30
439;DHT22;206;48.782;9.252;2023-03-04T02:26:26;2.70;48.40
439;DHT22;206;48.782;9.252;2023-03-04T02:28:54;2.70;49.20
439;DHT22;206;48.782;9.252;2023-03-04T02:31:33;2.70;49.20
439;DHT22;206;48.782;9.252;2023-03-04T02:34:02;2.70;49.00
439;DHT22;206;48.782;9.252;2023-03-04T02:36:29;2.60;49.30
439;DHT22;206;48.782;9.252;2023-03-04T02:39:00;2.60;49.40
439;DHT22;206;48.782;9.252;2023-03-04T02:41:28;2.60;49.60
439;DHT22;206;48.782;9.252;2023-03-04T02:43:55;2.60;49.70
439;DHT22;206;48.782;9.252;2023-03-04T02:46:22;2.70;49.80
439;DHT22;206;48.782;9.252;2023-03-04T02:48:49;2.60;49.40
439;DHT22;206;48.782;9.252;2023-03-04T02:51:15;2.60;49.30
439;DHT22;206;48.782;9.252;2023-03-04T02:53:41;2.60;49.40
439;DHT22;206;48.782;9.252;2023-03-04T02:56:07;2.60;49.80
439;DHT22;206;48.782;9.252;2023-03-04T02:58:33;2.60;49.80
439;DHT22;206;48.782;9.252;2023-03-04T03:00:59;2.60;49.60
439;DHT22;206;48.782;9.252;2023-03-04T03:03:24;2.60;49.70
439;DHT22;206;48.782;9.252;2023-03-04T03:05:50;2.50;50.30
439;DHT22;206;48.782;9.252;2023-03-04T03:08:16;2.50;49.70
439;DHT22;206;48.782;9.252;2023-03-04T03:10:41;2.50;49.80
439;DHT22;206;48.782;9.252;2023-03-04T03:13:07;2.50;50.10
439;DHT22;206;48.782;9.252;2023-03-04T03:15:32;2.50;49.90
439;DHT22;206;48.782;9.252;2023-03-04T03:17:58;2.40;50.20
439;DHT22;206;48.782;9.252;2023-03-04T03:20:24;2.40;50.20
439;DHT22;206;48.782;9.252;2023-03-04T03:22:49;2.40;50.30
439;DHT22;206;48.782;9.252;2023-03-04T03:25:15;2.40;50.30
439;DHT22;206;48.782;9.252;2023-03-04T03:27:42;2.40;50.30
439;DHT22;206;48.782;9.252;2023-03-04T03:30:10;2.30;50.50
439;DHT22;206;48.782;9.252;2023-03-04T03:32:36;2.20;51.40
439;DHT22;206;48.782;9.252;2023-03-04T03:35:02;2.20;51.70
439;DHT22;206;48.782;9.252;2023-03-04T03:37:28;2.20;51.60
439;DHT22;206;48.782;9.252;2023-03-04T03:39:54;2.20;51.40
439;DHT22;206;48.782;9.252;2023-03-04T03:42:19;2.10;51.20
439;DHT22;206;48.782;9.252;2023-03-04T03:44:45;2.10;51.10
439;DHT22;206;48.782;9.252;2023-03-04T03:47:11;2.10;51.00
439;DHT22;206;48.782;9.252;2023-03-04T03:49:36;2.10;51.30
439;DHT22;206;48.782;9.252;2023-03-04T03:52:02;2.00;51.50
439;DHT22;206;48.782;9.252;2023-03-04T03:54:27;2.10;51.30
439;DHT22;206;48.782;9.252;2023-03-04T03:56:53;2.00;51.50
439;DHT22;206;48.782;9.252;2023-03-04T03:59:18;2.00;52.50
439;DHT22;206;48.782;9.252;2023-03-04T04:01:44;2.00;52.40
439;DHT22;206;48.782;9.252;2023-03-04T04:04:10;1.90;52.30
439;DHT22;206;48.782;9.252;2023-03-04T04:06:36;1.80;52.70
439;DHT22;206;48.782;9.252;2023-03-04T04:09:01;1.80;53.50
439;DHT22;206;48.782;9.252;2023-03-04T04:11:27;1.80;54.10
439;DHT22;206;48.782;9.252;2023-03-04T04:13:53;1.80;55.70
439;DHT22;206;48.782;9.252;2023-03-04T04:16:18;1.80;55.90
439;DHT22;206;48.782;9.252;2023-03-04T04:18:44;1.70;54.40
439;DHT22;206;48.782;9.252;2023-03-04T04:21:10;1.70;53.60
439;DHT22;206;48.782;9.252;2023-03-04T04:23:35;1.70;52.60
439;DHT22;206;48.782;9.252;2023-03-04T04:26:01;1.70;53.00
439;DHT22;206;48.782;9.252;2023-03-04T04:28:26;1.60;53.70
439;DHT22;206;48.782;9.252;2023-03-04T04:30:52;1.60;53.40
439;DHT22;206;48.782;9.252;2023-03-04T04:33:18;1.60;53.00
439;DHT22;206;48.782;9.252;2023-03-04T04:35:43;1.60;53.10
439;DHT22;206;48.782;9.252;2023-03-04T04:38:09;1.50;53.30
439;DHT22;206;48.782;9.252;2023-03-04T04:40:35;1.50;53.80
439;DHT22;206;48.782;9.252;2023-03-04T04:43:01;1.50;54.20
439;DHT22;206;48.782;9.252;2023-03-04T04:45:28;1.50;54.10
439;DHT22;206;48.782;9.252;2023-03-04T04:47:54;1.40;54.40
439;DHT22;206;48.782;9.252;2023-03-04T04:50:22;1.50;54.90
439;DHT22;206;48.782;9.252;2023-03-04T04:52:48;1.50;54.60
439;DHT22;206;48.782;9.252;2023-03-04T04:55:14;1.40;54.20
439;DHT22;206;48.782;9.252;2023-03-04T04:57:39;1.40;54.40
439;DHT22;206;48.782;9.252;2023-03-04T05:00:06;1.40;54.70
439;DHT22;206;48.782;9.252;2023-03-04T05:02:32;1.30;53.30
439;DHT22;206;48.782;9.252;2023-03-04T05:05:03;1.30;53.50
439;DHT22;206;48.782;9.252;2023-03-04T05:07:29;1.30;53.30
439;DHT22;206;48.782;9.252;2023-03-04T05:09:54;1.30;53.80
439;DHT22;206;48.782;9.252;2023-03-04T05:12:20;1.30;54.40
439;DHT22;206;48.782;9.252;2023-03-04T05:14:45;1.20;55.30
439;DHT22;206;48.782;9.252;2023-03-04T05:17:11;1.20;55.80
439;DHT22;206;48.782;9.252;2023-03-04T05:19:37;1.20;56.10
439;DHT22;206;48.782;9.252;2023-03-04T05:22:02;1.10;56.20
439;DHT22;206;48.782;9.252;2023-03-04T05:24:28;1.20;56.40
439;DHT22;206;48.782;9.252;2023-03-04T05:26:53;1.20;56.40
439;DHT22;206;48.782;9.252;2023-03-04T05:29:19;1.20;56.40
439;DHT22;206;48.782;9.252;2023-03-04T05:31:45;1.20;56.40
439;DHT22;206;48.782;9.252;2023-03-04T05:34:10;1.20;56.40
439;DHT22;206;48.782;9.252;2023-03-04T05:36:36;1.10;55.60
439;DHT22;206;48.782;9.252;2023-03-04T05:39:02;1.10;55.40
439;DHT22;206;48.782;9.252;2023-03-04T05:41:27;1.10;56.10
439;DHT22;206;48.782;9.252;2023-03-04T05:43:53;1.10;56.30
439;DHT22;206;48.782;9.252;2023-03-04T05:46:18;1.10;56.30
439;DHT22;206;48.782;9.252;2023-03-04T05:48:50;1.10;56.30
439;DHT22;206;48.782;9.252;2023-03-04T05:51:16;1.10;56.30
439;DHT22;206;48.782;9.252;2023-03-04T05:53:42;1.10;56.90
439;DHT22;206;48.782;9.252;2023-03-04T05:56:09;1.10;56.90
439;DHT22;206;48.782;9.252;2023-03-04T05:58:36;1.10;56.60
439;DHT22;206;48.782;9.252;2023-03-04T06:01:02;1.20;56.70
439;DHT22;206;48.782;9.252;2023-03-04T06:03:28;1.20;57.20
439;DHT22;206;48.782;9.252;2023-03-04T06:05:54;1.10;57.20
439;DHT22;206;48.782;9.252;2023-03-04T06:08:19;1.20;57.00
439;DHT22;206;48.782;9.252;2023-03-04T06:10:45;1.20;56.60
439;DHT22;206;48.782;9.252;2023-03-04T06:13:11;1.20;57.30
439;DHT22;206;48.782;9.252;2023-03-04T06:15:38;1.20;57.10
439;DHT22;206;48.782;9.252;2023-03-04T06:18:04;1.20;58.10
439;DHT22;206;48.782;9.252;2023-03-04T06:20:30;1.20;58.30
439;DHT22;206;48.782;9.252;2023-03-04T06:22:55;1.20;57.60
439;DHT22;206;48.782;9.252;2023-03-04T06:25:21;1.30;57.70
439;DHT22;206;48.782;9.252;2023-03-04T06:27:47;1.30;58.50
439;DHT22;206;48.782;9.252;2023-03-04T06:30:13;1.30;57.90
439;DHT22;206;48.782;9.252;2023-03-04T06:32:39;1.40;57.70
439;DHT22;206;48.782;9.252;2023-03-04T06:35:05;1.50;57.80
439;DHT22;206;48.782;9.252;2023-03-04T06:37:31;1.50;58.10
439;DHT22;206;48.782;9.252;2023-03-04T06:39:56;1.60;58.20
439;DHT22;206;48.782;9.252;2023-03-04T06:42:22;1.70;58.00
439;DHT22;206;48.782;9.252;2023-03-04T06:44:48;1.80;57.50
439;DHT22;206;48.782;9.252;2023-03-04T06:47:14;1.90;56.00
439;DHT22;206;48.782;9.252;2023-03-04T06:49:40;2.00;55.20
439;DHT22;206;48.782;9.252;2023-03-04T06:52:06;2.20;54.10
439;DHT22;206;48.782;9.252;2023-03-04T06:54:31;2.20;53.30
439;DHT22;206;48.782;9.252;2023-03-04T06:56:57;2.30;53.60
439;DHT22;206;48.782;9.252;2023-03-04T06:59:22;2.40;53.30
439;DHT22;206;48.782;9.252;2023-03-04T07:01:48;2.50;52.80
439;DHT22;206;48.782;9.252;2023-03-04T07:04:14;2.70;51.80
439;DHT22;206;48.782;9.252;2023-03-04T07:06:40;2.70;50.60
439;DHT22;206;48.782;9.252;2023-03-04T07:09:05;2.70;50.70
439;DHT22;206;48.782;9.252;2023-03-04T07:11:31;2.80;50.70
439;DHT22;206;48.782;9.252;2023-03-04T07:13:57;2.70;50.30
439;DHT22;206;48.782;9.252;2023-03-04T07:16:23;2.70;50.60
439;DHT22;206;48.782;9.252;2023-03-04T07:18:49;2.80;50.10
439;DHT22;206;48.782;9.252;2023-03-04T07:21:16;2.90;50.50
439;DHT22;206;48.782;9.252;2023-03-04T07:23:42;2.90;49.10
439;DHT22;206;48.782;9.252;2023-03-04T07:26:08;3.00;49.60
439;DHT22;206;48.782;9.252;2023-03-04T07:28:34;3.00;49.60
439;DHT22;206;48.782;9.252;2023-03-04T07:31:11;3.10;48.60
439;DHT22;206;48.782;9.252;2023-03-04T07:33:37;3.10;48.60
439;DHT22;206;48.782;9.252;2023-03-04T07:36:03;3.00;49.00
439;DHT22;206;48.782;9.252;2023-03-04T07:38:29;3.00;49.50
439;DHT22;206;48.782;9.252;2023-03-04T07:40:58;3.10;50.50
439;DHT22;206;48.782;9.252;2023-03-04T07:43:24;3.20;50.30
439;DHT22;206;48.782;9.252;2023-03-04T07:45:49;3.30;48.20
439;DHT22;206;48.782;9.252;2023-03-04T07:48:15;3.30;48.00
439;DHT22;206;48.782;9.252;2023-03-04T07:50:41;3.10;47.70
439;DHT22;206;48.782;9.252;2023-03-04T07:53:06;2.90;49.30
439;DHT22;206;48.782;9.252;2023-03-04T07:55:32;2.90;49.50
439;DHT22;206;48.782;9.252;2023-03-04T07:57:58;3.00;50.20
439;DHT22;206;48.782;9.252;2023-03-04T08:00:24;3.00;50.20
439;DHT22;206;48.782;9.252;2023-03-04T08:02:49;2.90;49.70
439;DHT22;206;48.782;9.252;2023-03-04T08:05:15;2.70;50.50
439;DHT22;206;48.782;9.252;2023-03-04T08:07:41;2.70;51.40
439;DHT22;206;48.782;9.252;2023-03-04T08:10:07;2.60;52.10
439;DHT22;206;48.782;9.252;2023-03-04T08:12:34;2.50;52.90
439;DHT22;206;48.782;9.252;2023-03-04T08:15:00;2.40;52.80
439;DHT22;206;48.782;9.252;2023-03-04T08:17:25;2.40;53.00
439;DHT22;206;48.782;9.252;2023-03-04T08:19:54;2.50;53.70
439;DHT22;206;48.782;9.252;2023-03-04T08:22:19;2.60;53.60
439;DHT22;206;48.782;9.252;2023-03-04T08:24:45;2.70;53.00
439;DHT22;206;48.782;9.252;2023-03-04T08:27:10;2.80;52.60
439;DHT22;206;48.782;9.252;2023-03-04T08:29:36;2.90;51.20
439;DHT22;206;48.782;9.252;2023-03-04T08:32:02;3.00;50.50
439;DHT22;206;48.782;9.252;2023-03-04T08:34:28;3.10;49.90
439;DHT22;206;48.782;9.252;2023-03-04T08:36:53;3.10;49.60
439;DHT22;206;48.782;9.252;2023-03-04T08:39:19;3.30;49.50
439;DHT22;206;48.782;9.252;2023-03-04T08:41:46;3.40;48.90
439;DHT22;206;48.782;9.252;2023-03-04T08:44:12;3.50;47.80
439;DHT22;206;48.782;9.252;2023-03-04T08:46:39;3.50;48.00
439;DHT22;206;48.782;9.252;2023-03-04T08:49:06;3.70;46.60
439;DHT22;206;48.782;9.252;2023-03-04T08:51:32;3.70;46.30
439;DHT22;206;48.782;9.252;2023-03-04T08:54:01;3.70;45.50
439;DHT22;206;48.782;9.252;2023-03-04T08:56:26;3.60;46.10
439;DHT22;206;48.782;9.252;2023-03-04T08:58:52;3.70;46.30
439;DHT22;206;48.782;9.252;2023-03-04T09:01:17;3.70;46.10
439;DHT22;206;48.782;9.252;2023-03-04T09:03:43;3.80;45.60
439;DHT22;206;48.782;9.252;2023-03-04T09:06:12;4.00;44.60
439;DHT22;206;48.782;9.252;2023-03-04T09:08:38;4.00;45.30
439;DHT22;206;48.782;9.252;2023-03-04T09:11:04;3.90;44.50
439;DHT22;206;48.782;9.252;2023-03-04T09:13:31;4.00;45.30
439;DHT22;206;48.782;9.252;2023-03-04T09:15:57;4.00;44.60
439;DHT22;206;48.782;9.252;2023-03-04T09:18:24;4.00;44.60
439;DHT22;206;48.782;9.252;2023-03-04T09:20:50;3.90;44.60
439;DHT22;206;48.782;9.252;2023-03-04T09:23:16;3.80;44.90
439;DHT22;206;48.782;9.252;2023-03-04T09:25:43;4.00;45.60
439;DHT22;206;48.782;9.252;2023-03-04T09:28:10;4.20;45.20
439;DHT22;206;48.782;9.252;2023-03-04T09:30:36;4.20;43.90
439;DHT22;206;48.782;9.252;2023-03-04T09:33:01;4.40;44.00
439;DHT22;206;48.782;9.252;2023-03-04T09:35:27;4.60;42.30
439;DHT22;206;48.782;9.252;2023-03-04T09:37:55;4.70;40.60
439;DHT22;206;48.782;9.252;2023-03-04T09:40:25;4.80;40.40
439;DHT22;206;48.782;9.252;2023-03-04T09:43:02;4.90;40.50
439;DHT22;206;48.782;9.252;2023-03-04T09:45:36;5.10;39.70
439;DHT22;206;48.782;9.252;2023-03-04T09:48:04;5.20;38.60
439;DHT22;206;48.782;9.252;2023-03-04T09:50:32;5.30;37.10
439;DHT22;206;48.782;9.252;2023-03-04T09:53:17;5.40;36.00
439;DHT22;206;48.782;9.252;2023-03-04T09:55:49;5.40;36.00
439;DHT22;206;48.782;9.252;2023-03-04T09:58:45;5.40;36.00
439;DHT22;206;48.782;9.252;2023-03-04T10:01:39;5.20;36.60
439;DHT22;206;48.782;9.252;2023-03-04T10:04:16;5.10;36.70
439;DHT22;206;48.782;9.252;2023-03-04T10:06:43;5.10;36.70
439;DHT22;206;48.782;9.252;2023-03-04T10:09:25;4.80;37.30
439;DHT22;206;48.782;9.252;2023-03-04T10:12:11;4.90;37.70
439;DHT22;206;48.782;9.252;2023-03-04T10:14:50;5.00;36.90
439;DHT22;206;48.782;9.252;2023-03-04T10:17:37;5.20;35.90
439;DHT22;206;48.782;9.252;2023-03-04T10:20:23;5.40;36.00
439;DHT22;206;48.782;9.252;2023-03-04T10:22:51;5.60;34.40
439;DHT22;206;48.782;9.252;2023-03-04T10:25:29;5.80;31.30
439;DHT22;206;48.782;9.252;2023-03-04T10:28:06;6.20;31.70
439;DHT22;206;48.782;9.252;2023-03-04T10:33:31;6.60;29.30
439;DHT22;206;48.782;9.252;2023-03-04T10:38:56;6.50;28.40
439;DHT22;206;48.782;9.252;2023-03-04T10:41:23;6.50;28.00
439;DHT22;206;48.782;9.252;2023-03-04T10:46:46;6.30;29.00
439;DHT22;206;48.782;9.252;2023-03-04T10:49:14;6.20;28.60
439;DHT22;206;48.782;9.252;2023-03-04T10:51:43;6.20;28.60
439;DHT22;206;48.782;9.252;2023-03-04T10:56:42;6.20;29.00
439;DHT22;206;48.782;9.252;2023-03-04T11:04:41;6.20;28.50
439;DHT22;206;48.782;9.252;2023-03-04T11:07:10;5.90;29.00
439;DHT22;206;48.782;9.252;2023-03-04T11:09:36;5.80;29.50
439;DHT22;206;48.782;9.252;2023-03-04T11:12:10;5.80;29.40
439;DHT22;206;48.782;9.252;2023-03-04T11:14:46;5.70;30.10
439;DHT22;206;48.782;9.252;2023-03-04T11:20:16;6.00;29.70
439;DHT22;206;48.782;9.252;2023-03-04T11:22:44;6.30;29.40
439;DHT22;206;48.782;9.252;2023-03-04T11:27:47;6.80;27.90
439;DHT22;206;48.782;9.252;2023-03-04T11:30:24;6.80;27.50
439;DHT22;206;48.782;9.252;2023-03-04T11:32:53;6.80;26.90
439;DHT22;206;48.782;9.252;2023-03-04T11:38:18;6.80;25.80
439;DHT22;206;48.782;9.252;2023-03-04T11:43:37;6.70;26.40
439;DHT22;206;48.782;9.252;2023-03-04T11:49:00;6.50;27.70
439;DHT22;206;48.782;9.252;2023-03-04T12:00:17;6.40;27.00
439;DHT22;206;48.782;9.252;2023-03-04T12:05:58;6.00;27.40
439;DHT22;206;48.782;9.252;2023-03-04T12:11:28;5.60;28.90
439;DHT22;206;48.782;9.252;2023-03-04T12:19:40;5.60;29.20
439;DHT22;206;48.782;9.252;2023-03-04T12:22:43;5.60;29.20
439;DHT22;206;48.782;9.252;2023-03-04T12:30:36;6.10;28.70
439;DHT22;206;48.782;9.252;2023-03-04T12:33:30;6.20;28.20
439;DHT22;206;48.782;9.252;2023-03-04T12:36:23;6.40;27.90
439;DHT22;206;48.782;9.252;2023-03-04T12:44:53;6.30;27.80
439;DHT22;206;48.782;9.252;2023-03-04T12:51:13;6.10;27.90
439;DHT22;206;48.782;9.252;2023-03-04T12:55:44;6.20;28.50
439;DHT22;206;48.782;9.252;2023-03-04T12:58:15;6.20;28.50
439;DHT22;206;48.782;9.252;2023-03-04T13:00:51;6.20;28.30
439;DHT22;206;48.782;9.252;2023-03-04T13:06:04;6.30;27.80
439;DHT22;206;48.782;9.252;2023-03-04T13:08:55;6.20;28.10
439;DHT22;206;48.782;9.252;2023-03-04T13:16:41;6.10;28.60
439;DHT22;206;48.782;9.252;2023-03-04T13:32:57;5.90;28.70
439;DHT22;206;48.782;9.252;2023-03-04T13:38:34;5.90;28.90
439;DHT22;206;48.782;9.252;2023-03-04T13:41:23;5.90;28.70
439;DHT22;206;48.782;9.252;2023-03-04T13:43:54;5.90;29.30
439;DHT22;206;48.782;9.252;2023-03-04T13:51:39;6.10;27.40
439;DHT22;206;48.782;9.252;2023-03-04T14:02:16;6.10;27.40
439;DHT22;206;48.782;9.252;2023-03-04T14:09:56;6.00;27.70
439;DHT22;206;48.782;9.252;2023-03-04T14:12:22;5.90;28.10
439;DHT22;206;48.782;9.252;2023-03-04T14:14:55;5.90;28.10
439;DHT22;206;48.782;9.252;2023-03-04T14:17:34;5.80;28.30
439;DHT22;206;48.782;9.252;2023-03-04T14:20:06;5.80;28.60
439;DHT22;206;48.782;9.252;2023-03-04T14:22:45;5.70;28.50
439;DHT22;206;48.782;9.252;2023-03-04T14:27:40;5.70;28.30
439;DHT22;206;48.782;9.252;2023-03-04T14:30:17;5.50;28.90
439;DHT22;206;48.782;9.252;2023-03-04T14:32:43;5.30;29.30
439;DHT22;206;48.782;9.252;2023-03-04T14:35:32;5.30;29.60
439;DHT22;206;48.782;9.252;2023-03-04T14:40:49;5.50;29.40
439;DHT22;206;48.782;9.252;2023-03-04T14:43:20;5.60;29.00
439;DHT22;206;48.782;9.252;2023-03-04T14:45:50;5.70;28.90
439;DHT22;206;48.782;9.252;2023-03-04T14:48:21;5.60;29.20
439;DHT22;206;48.782;9.252;2023-03-04T14:50:52;5.50;29.50
439;DHT22;206;48.782;9.252;2023-03-04T14:53:20;5.50;29.60
439;DHT22;206;48.782;9.252;2023-03-04T14:55:58;5.40;29.90
439;DHT22;206;48.782;9.252;2023-03-04T14:58:32;5.40;29.90
439;DHT22;206;48.782;9.252;2023-03-04T15:01:12;5.40;30.30
439;DHT22;206;48.782;9.252;2023-03-04T15:03:39;5.40;30.40
439;DHT22;206;48.782;9.252;2023-03-04T15:06:21;5.30;30.90
439;DHT22;206;48.782;9.252;2023-03-04T15:08:55;5.30;30.90
439;DHT22;206;48.782;9.252;2023-03-04T15:11:25;5.30;30.50
439;DHT22;206;48.782;9.252;2023-03-04T15:13:54;5.20;30.50
439;DHT22;206;48.782;9.252;2023-03-04T15:16:22;5.20;30.90
439;DHT22;206;48.782;9.252;2023-03-04T15:21:51;5.10;30.80
439;DHT22;206;48.782;9.252;2023-03-04T15:24:26;5.10;31.30
439;DHT22;206;48.782;9.252;2023-03-04T15:26:52;5.10;31.40
439;DHT22;206;48.782;9.252;2023-03-04T15:29:19;5.00;31.80
439;DHT22;206;48.782;9.252;2023-03-04T15:31:46;5.00;32.30
439;DHT22;206;48.782;9.252;2023-03-04T15:34:18;5.00;32.50
439;DHT22;206;48.782;9.252;2023-03-04T15:36:46;5.00;32.60
439;DHT22;206;48.782;9.252;2023-03-04T15:39:14;5.10;32.60
439;DHT22;206;48.782;9.252;2023-03-04T15:41:41;5.20;32.00
439;DHT22;206;48.782;9.252;2023-03-04T15:44:08;5.20;31.80
439;DHT22;206;48.782;9.252;2023-03-04T15:46:36;5.20;31.90
439;DHT22;206;48.782;9.252;2023-03-04T15:49:01;5.10;32.20
439;DHT22;206;48.782;9.252;2023-03-04T15:51:27;5.10;32.00
439;DHT22;206;48.782;9.252;2023-03-04T15:53:55;5.10;32.40
439;DHT22;206;48.782;9.252;2023-03-04T15:56:28;5.10;32.60
439;DHT22;206;48.782;9.252;2023-03-04T15:58:57;5.00;31.90
439;DHT22;206;48.782;9.252;2023-03-04T16:01:24;5.00;32.20
439;DHT22;206;48.782;9.252;2023-03-04T16:03:50;5.00;32.40
439;DHT22;206;48.782;9.252;2023-03-04T16:06:18;4.90;32.50
439;DHT22;206;48.782;9.252;2023-03-04T16:08:45;4.90;33.10
439;DHT22;206;48.782;9.252;2023-03-04T16:11:20;5.00;33.00
439;DHT22;206;48.782;9.252;2023-03-04T16:13:47;5.00;32.70
439;DHT22;206;48.782;9.252;2023-03-04T16:16:13;5.10;32.50
439;DHT22;206;48.782;9.252;2023-03-04T16:18:40;5.10;32.20
439;DHT22;206;48.782;9.252;2023-03-04T16:21:08;5.10;32.30
439;DHT22;206;48.782;9.252;2023-03-04T16:23:41;5.10;32.10
439;DHT22;206;48.782;9.252;2023-03-04T16:26:17;5.10;32.50
439;DHT22;206;48.782;9.252;2023-03-04T16:28:43;5.00;33.00
439;DHT22;206;48.782;9.252;2023-03-04T16:31:13;5.00;32.70
439;DHT22;206;48.782;9.252;2023-03-04T16:33:39;5.10;32.70
439;DHT22;206;48.782;9.252;2023-03-04T16:36:23;5.10;32.60
439;DHT22;206;48.782;9.252;2023-03-04T16:38:51;5.20;32.60
439;DHT22;206;48.782;9.252;2023-03-04T16:41:22;5.20;31.80
439;DHT22;206;48.782;9.252;2023-03-04T16:43:49;5.00;32.50
439;DHT22;206;48.782;9.252;2023-03-04T16:46:14;5.00;32.90
439;DHT22;206;48.782;9.252;2023-03-04T16:48:40;5.10;32.70
439;DHT22;206;48.782;9.252;2023-03-04T16:51:12;5.00;32.90
439;DHT22;206;48.782;9.252;2023-03-04T16:53:39;5.10;33.20
439;DHT22;206;48.782;9.252;2023-03-04T16:56:15;5.10;33.00
439;DHT22;206;48.782;9.252;2023-03-04T16:58:41;5.00;33.30
439;DHT22;206;48.782;9.252;2023-03-04T17:01:19;5.10;33.30
439;DHT22;206;48.782;9.252;2023-03-04T17:03:45;5.10;33.50
439;DHT22;206;48.782;9.252;2023-03-04T17:06:11;5.10;33.90
439;DHT22;206;48.782;9.252;2023-03-04T17:08:37;5.00;34.10
439;DHT22;206;48.782;9.252;2023-03-04T17:11:03;5.00;34.10
439;DHT22;206;48.782;9.252;2023-03-04T17:13:28;5.00;34.00
439;DHT22;206;48.782;9.252;2023-03-04T17:15:54;5.00;34.30
439;DHT22;206;48.782;9.252;2023-03-04T17:18:19;5.10;33.90
439;DHT22;206;48.782;9.252;2023-03-04T17:20:45;5.10;33.90
439;DHT22;206;48.782;9.252;2023-03-04T17:23:10;5.20;33.50
439;DHT22;206;48.782;9.252;2023-03-04T17:25:36;5.20;33.40
439;DHT22;206;48.782;9.252;2023-03-04T17:28:02;5.30;33.50
439;DHT22;206;48.782;9.252;2023-03-04T17:30:27;5.30;33.40
439;DHT22;206;48.782;9.252;2023-03-04T17:32:53;5.30;33.50
439;DHT22;206;48.782;9.252;2023-03-04T17:35:19;5.30;33.50
439;DHT22;206;48.782;9.252;2023-03-04T17:37:44;5.30;33.70
439;DHT22;206;48.782;9.252;2023-03-04T17:40:11;5.20;34.10
439;DHT22;206;48.782;9.252;2023-03-04T17:42:41;5.20;34.70
439;DHT22;206;48.782;9.252;2023-03-04T17:45:07;5.20;34.50
439;DHT22;206;48.782;9.252;2023-03-04T17:47:33;5.20;34.50
439;DHT22;206;48.782;9.252;2023-03-04T17:49:59;5.30;34.40
439;DHT22;206;48.782;9.252;2023-03-04T17:52:24;5.30;34.40
439;DHT22;206;48.782;9.252;2023-03-04T17:54:50;5.30;34.40
439;DHT22;206;48.782;9.252;2023-03-04T17:57:16;5.30;34.40
439;DHT22;206;48.782;9.252;2023-03-04T17:59:41;5.40;34.30
439;DHT22;206;48.782;9.252;2023-03-04T18:02:12;5.40;34.00
439;DHT22;206;48.782;9.252;2023-03-04T18:04:38;5.40;33.90
439;DHT22;206;48.782;9.252;2023-03-04T18:07:04;5.50;33.90
439;DHT22;206;48.782;9.252;2023-03-04T18:09:29;5.50;33.70
439;DHT22;206;48.782;9.252;2023-03-04T18:11:55;5.60;33.30
439;DHT22;206;48.782;9.252;2023-03-04T18:14:20;5.70;33.30
439;DHT22;206;48.782;9.252;2023-03-04T18:16:46;5.80;33.00
439;DHT22;206;48.782;9.252;2023-03-04T18:19:12;5.80;32.60
439;DHT22;206;48.782;9.252;2023-03-04T18:21:37;5.80;32.50
439;DHT22;206;48.782;9.252;2023-03-04T18:24:03;5.90;32.60
439;DHT22;206;48.782;9.252;2023-03-04T18:26:29;5.90;32.50
439;DHT22;206;48.782;9.252;2023-03-04T18:28:55;6.00;32.20
439;DHT22;206;48.782;9.252;2023-03-04T18:31:24;6.00;31.80
439;DHT22;206;48.782;9.252;2023-03-04T18:33:51;6.00;31.50
439;DHT22;206;48.782;9.252;2023-03-04T18:36:17;6.10;31.60
439;DHT22;206;48.782;9.252;2023-03-04T18:40:34;6.10;31.60
439;DHT22;206;48.782;9.252;2023-03-04T18:42:59;6.00;31.70
439;DHT22;206;48.782;9.252;2023-03-04T18:45:26;6.00;31.50
439;DHT22;206;48.782;9.252;2023-03-04T18:47:52;6.00;31.70
439;DHT22;206;48.782;9.252;2023-03-04T18:50:18;6.00;31.60
439;DHT22;206;48.782;9.252;2023-03-04T18:52:46;6.10;31.60
439;DHT22;206;48.782;9.252;2023-03-04T18:55:12;6.10;31.80
439;DHT22;206;48.782;9.252;2023-03-04T18:57:44;6.00;32.20
439;DHT22;206;48.782;9.252;2023-03-04T19:00:14;5.90;32.80
439;DHT22;206;48.782;9.252;2023-03-04T19:02:46;5.90;32.60